Dudley, Indiana
Current Conditions -  °F | °C
As of 4:53 AM on Tuesday 21 Oct 2014 (Local Time) from KMIE Reporting Station
Overcast Overcast  
Wind Chill: 46°   Ceiling: 5500
Heat Index: 49°   Visibility: 10mi
Dew Point: 46°   Wind: 7mph
Humidity: 90%   Direction: 320°NW
Pressure: 29.96"   Gusts: NA
Location:  39.8307°N, 85.2704°W
Report Text: KMIE 210853Z AUTO 32006KT 10SM OVC055 09/08 A2996 RMK AO2 SLP140 T00940078 53005
Loading
Personal Weather Stations






























Interactive Weather Map
Tropical Storm Tracking
New forecast layout! Learn more

10-Day Weather Forecast

Advertisements
Track Severe Weather on mobile